Time;durP1;ratioP1;P1;durP2;ratioP2;P2;SDS_P1;SDS_P2;PMS_P1;PMS_P2;Temp;Humidity;BMP_temperature;BMP_pressure;BME280_temperature;BME280_humidity;BME280_pressure;Samples;Min_cycle;Max_cycle;Signal;HPM_P1;HPM_P2
2021/04/08 08:17:11;;;;;;;;;;;;;;;9.35;44.74;100538.25;6214244;23;19931;-84
2021/04/08 08:19:41;;;;;;;;;;;;;;;9.36;44.82;100537.34;6217194;23;19923;-84
2021/04/08 08:22:07;;;;;;;;;;;;;;;9.34;44.77;100533.88;6189962;23;19916;-84
2021/04/08 08:24:32;;;;;;;;;;;;;;;9.35;44.85;100525.00;6216379;23;19988;-85
2021/04/08 08:26:58;;;;;;;;;;;;;;;9.35;44.46;100530.31;6190867;23;19927;-85
2021/04/08 08:29:27;;;;;;;;;;;;;;;9.34;44.72;100529.44;6216426;23;19916;-84
2021/04/08 08:31:54;;;;;;;;;;;;;;;9.34;44.44;100525.94;6214486;23;19916;-83
2021/04/08 08:34:24;;;;;;;;;;;;;;;9.34;44.72;100528.59;6189632;23;19916;-84
2021/04/08 08:36:52;;;;;;;;;;;;;;;9.34;44.76;100533.88;6189151;23;20216;-84
2021/04/08 08:39:21;;;;;;;;;;;;;;;9.34;44.69;100536.53;6215759;23;19935;-84
2021/04/08 08:41:46;;;;;;;;;;;;;;;9.34;44.60;100537.38;6190434;23;20304;-84
2021/04/08 08:44:13;;;;;;;;;;;;;;;9.35;44.61;100533.84;6189131;23;19915;-84
2021/04/08 08:46:46;;;;;;;;;;;;;;;9.36;44.48;100534.69;6215640;23;20252;-84
2021/04/08 08:49:12;;;;;;;;;;;;;;;9.34;43.44;100528.59;6190289;23;19926;-84
2021/04/08 08:51:38;;;;;;;;;;;;;;;9.35;43.36;100530.31;6215805;23;20429;-84
2021/04/08 08:54:04;;;;;;;;;;;;;;;9.36;43.35;100532.06;6215663;23;19997;-85
2021/04/08 08:56:30;;;;;;;;;;;;;;;9.35;43.31;100528.56;6190989;23;19978;-83
2021/04/08 08:58:57;;;;;;;;;;;;;;;9.37;43.30;100528.50;6216333;23;19916;-84
2021/04/08 09:01:22;;;;;;;;;;;;;;;9.36;42.94;100526.75;6215176;23;19915;-84
2021/04/08 09:03:48;;;;;;;;;;;;;;;9.38;42.62;100538.16;6214125;23;19916;-84
2021/04/08 09:06:14;;;;;;;;;;;;;;;9.39;42.67;100538.13;6215306;23;19955;-84
2021/04/08 09:08:41;;;;;;;;;;;;;;;9.39;41.79;100538.13;6214829;23;19920;-84
2021/04/08 09:11:07;;;;;;;;;;;;;;;9.39;42.20;100540.75;6189858;23;19987;-85
2021/04/08 09:13:32;;;;;;;;;;;;;;;9.41;42.05;100541.63;6214673;23;19915;-84
2021/04/08 09:16:02;;;;;;;;;;;;;;;9.42;41.90;100540.69;6216023;23;19916;-84
2021/04/08 09:18:27;;;;;;;;;;;;;;;9.43;41.71;100531.00;6189990;23;19996;-84
2021/04/08 09:20:54;;;;;;;;;;;;;;;9.43;41.94;100531.00;6189539;23;20208;-84
2021/04/08 09:23:21;;;;;;;;;;;;;;;9.43;41.49;100536.28;6215447;23;19915;-84
2021/04/08 09:25:47;;;;;;;;;;;;;;;9.44;41.12;100535.34;6215008;23;19931;-85
2021/04/08 09:28:13;;;;;;;;;;;;;;;9.43;41.38;100528.34;6214362;23;19916;-84
2021/04/08 09:30:47;;;;;;;;;;;;;;;9.45;42.18;100526.53;6215522;23;20066;-84
2021/04/08 09:33:12;;;;;;;;;;;;;;;9.45;42.21;100522.09;6215480;23;19920;-84
2021/04/08 09:35:38;;;;;;;;;;;;;;;9.46;41.24;100528.25;6186092;23;20266;-84
2021/04/08 09:38:03;;;;;;;;;;;;;;;9.47;41.23;100523.84;6211216;23;19977;-84
2021/04/08 09:40:41;;;;;;;;;;;;;;;9.47;40.72;100522.06;6214294;23;19974;-84
2021/04/08 09:43:12;;;;;;;;;;;;;;;9.48;41.07;100520.25;6214635;23;19920;-86
2021/04/08 09:45:44;;;;;;;;;;;;;;;9.48;40.71;100521.16;6215302;23;19982;-84
2021/04/08 09:48:11;;;;;;;;;;;;;;;9.49;40.48;100517.59;6215124;23;19926;-84
2021/04/08 09:50:51;;;;;;;;;;;;;;;9.50;40.70;100518.47;6188774;23;19970;-84
2021/04/08 09:53:21;;;;;;;;;;;;;;;9.50;40.26;100519.34;6214525;23;20335;-84
2021/04/08 09:55:57;;;;;;;;;;;;;;;9.51;40.56;100518.44;6189632;23;20343;-84
2021/04/08 09:58:24;;;;;;;;;;;;;;;9.52;40.67;100511.34;6215791;23;20486;-84
2021/04/08 10:00:50;;;;;;;;;;;;;;;9.53;40.47;100505.16;6188495;23;19970;-86
2021/04/08 10:03:26;;;;;;;;;;;;;;;9.52;40.28;100506.91;6213089;23;19920;-85
2021/04/08 10:05:51;;;;;;;;;;;;;;;9.53;40.20;100506.03;6182695;23;19931;-85
2021/04/08 10:08:19;;;;;;;;;;;;;;;9.54;40.15;100509.53;6184326;23;19916;-85
2021/04/08 10:10:45;;;;;;;;;;;;;;;9.55;40.03;100505.97;6187129;23;19917;-85
2021/04/08 10:13:21;;;;;;;;;;;;;;;9.55;40.44;100498.03;6185627;23;19927;-84
2021/04/08 10:15:47;;;;;;;;;;;;;;;9.56;41.17;100500.66;6186843;23;19916;-85
2021/04/08 10:18:17;;;;;;;;;;;;;;;9.57;41.17;100510.34;6186070;23;19994;-86
2021/04/08 10:20:43;;;;;;;;;;;;;;;9.58;41.42;100498.81;6186000;23;19916;-86
2021/04/08 10:23:09;;;;;;;;;;;;;;;9.60;42.36;100499.63;6185302;23;19916;-86
2021/04/08 10:25:34;;;;;;;;;;;;;;;9.60;41.75;100488.19;6236053;23;19971;-86
2021/04/08 10:28:00;;;;;;;;;;;;;;;9.62;41.90;100491.66;6186982;23;20370;-84
2021/04/08 10:30:26;;;;;;;;;;;;;;;9.63;42.00;100485.47;6186323;23;20253;-85
2021/04/08 10:32:53;;;;;;;;;;;;;;;9.63;42.15;100482.81;6185026;23;19935;-86
2021/04/08 10:35:18;;;;;;;;;;;;;;;9.64;42.39;100477.50;6187164;23;20202;-83
2021/04/08 10:37:44;;;;;;;;;;;;;;;9.63;41.25;100478.38;6184858;23;19992;-85
2021/04/08 10:40:09;;;;;;;;;;;;;;;9.67;41.93;100475.66;6188964;23;19916;-83
2021/04/08 10:42:34;;;;;;;;;;;;;;;9.68;42.02;100469.47;6188195;23;20291;-83
2021/04/08 10:45:05;;;;;;;;;;;;;;;9.69;42.59;100471.22;6185042;23;19916;-83
2021/04/08 10:47:33;;;;;;;;;;;;;;;9.70;42.15;100468.53;6182986;23;19983;-83
2021/04/08 10:50:00;;;;;;;;;;;;;;;9.70;42.01;100467.63;6183491;23;20238;-84
2021/04/08 10:52:25;;;;;;;;;;;;;;;9.71;41.90;100470.25;6183625;23;19979;-85
2021/04/08 10:54:52;;;;;;;;;;;;;;;9.72;42.60;100469.34;6183364;23;19991;-84
2021/04/08 10:57:19;;;;;;;;;;;;;;;9.73;42.85;100467.56;6184145;23;19924;-84
2021/04/08 10:59:46;;;;;;;;;;;;;;;9.73;42.54;100464.91;6183952;23;19924;-83
2021/04/08 11:02:17;;;;;;;;;;;;;;;9.75;42.42;100460.44;6184462;23;19991;-83
2021/04/08 11:04:42;;;;;;;;;;;;;;;9.74;42.71;100461.34;6194040;23;19940;-83
2021/04/08 11:07:08;;;;;;;;;;;;;;;9.74;42.92;100464.84;6214066;23;20367;-83
2021/04/08 11:09:33;;;;;;;;;;;;;;;9.74;42.94;100462.22;6214676;23;19938;-82
2021/04/08 11:12:13;;;;;;;;;;;;;;;9.75;42.67;100460.44;6214042;23;19916;-84
2021/04/08 11:14:43;;;;;;;;;;;;;;;9.75;43.42;100444.56;6214564;23;19991;-84
2021/04/08 11:17:09;;;;;;;;;;;;;;;9.77;43.19;100450.69;6213645;23;19950;-85
2021/04/08 11:19:36;;;;;;;;;;;;;;;9.77;43.34;100446.25;6212233;23;19916;-84
2021/04/08 11:22:01;;;;;;;;;;;;;;;9.77;42.84;100434.81;6212314;23;19972;-82
2021/04/08 11:24:26;;;;;;;;;;;;;;;9.78;43.44;100439.16;6187049;23;19947;-83
2021/04/08 11:26:56;;;;;;;;;;;;;;;9.78;43.17;100436.53;6187699;23;19916;-86
2021/04/08 11:29:26;;;;;;;;;;;;;;;9.78;43.14;100426.81;6213824;23;19924;-84
2021/04/08 11:32:20;;;;;;;;;;;;;;;9.79;43.41;100419.75;6213885;23;19965;-87
2021/04/08 11:34:47;;;;;;;;;;;;;;;9.79;43.59;100428.53;6168090;23;20263;-83
2021/04/08 11:37:14;;;;;;;;;;;;;;;9.82;43.14;100435.53;6186575;23;19927;-83
2021/04/08 11:39:39;;;;;;;;;;;;;;;9.81;42.90;100423.19;6213412;23;20288;-84
2021/04/08 11:42:18;;;;;;;;;;;;;;;9.82;43.67;100424.94;6213027;23;19927;-84
2021/04/08 11:44:44;;;;;;;;;;;;;;;9.81;43.95;100426.72;6187923;23;19920;-85
2021/04/08 11:47:10;;;;;;;;;;;;;;;9.84;43.76;100424.91;6186110;23;19920;-83
2021/04/08 11:49:41;;;;;;;;;;;;;;;9.84;43.76;100423.09;6187939;23;19962;-85
2021/04/08 11:52:10;;;;;;;;;;;;;;;9.84;43.24;100412.53;6187292;23;19993;-82
2021/04/08 11:54:35;;;;;;;;;;;;;;;9.85;43.24;100414.25;6212603;23;19926;-84
